Latest Weather Observations for Ernabella/Pukatja

IDD60801

Issued at 9:05 am CST Saturday 20 September 2014 (issued every 30 minutes, with the page automatically refreshed every 10 minutes)

About weather observations | Map of weather stations | Latest weather observations for NT | Other Formats
Station Details ID: 016097 Name: PUKATJA Lat: -26.26 Lon: 132.18 Height: 703.2 m
Data from the previous 72 hours. | See also: Recent months at Ernabella/Pukatja
Date/Time
CST
Temp
°C
App
Temp
°C
Dew
Point
Rel
Hum
%
Delta-T
°C
Wind Press
QNH
hPa
Press
MSL
hPa
Rain
since 9 am
mm
Dir
 
Spd
km/h
Gust
km/h
Spd
kts
Gust
kts
20/09:00am 19.4 11.3 -0.1 27 8.9 ENE 32 43 17 23 1022.6 1020.1 0.0
20/08:30am 18.4 11.1 0.1 29 8.3 E 28 35 15 19 1022.5 - 0.0
20/08:00am 17.4 10.7 -0.8 29 8.0 E 24 35 13 19 1022.1 - 0.0
20/07:30am 16.6 11.2 -1.5 29 7.8 E 17 20 9 11 1021.9 - 0.0
20/07:00am 15.4 10.0 -1.6 31 7.3 E 17 19 9 10 1021.6 - 0.0
20/06:30am 15.4 9.9 -2.1 30 7.4 E 17 24 9 13 1021.1 - 0.0
20/06:00am 16.4 9.6 -2.1 28 7.9 E 24 32 13 17 1020.6 1018.1 0.0
20/05:30am 16.5 10.4 -2.5 27 8.0 E 20 28 11 15 1020.5 - 0.0
20/05:00am 16.7 9.5 -2.4 27 8.1 E 26 33 14 18 1019.9 - 0.0
20/04:30am 16.8 8.7 -2.8 26 8.3 E 30 41 16 22 1019.5 - 0.0
20/04:12am 17.3 8.8 -2.9 25 8.5 ESE 32 50 17 27 1019.5 - 0.0
20/04:00am 17.2 8.5 -3.0 25 8.5 ESE 33 44 18 24 1019.6 - 0.0
20/03:42am 17.9 9.4 -3.5 23 9.0 SE 32 52 17 28 1019.7 - 0.0
20/03:30am 18.2 10.8 -3.8 22 9.2 SE 26 35 14 19 1019.9 - 0.0
20/03:02am 18.7 10.9 -4.0 21 9.5 SE 28 54 15 29 1019.6 - 0.0
20/03:00am 18.8 11.4 -3.3 22 9.4 SE 26 37 14 20 1019.5 1017.0 0.0
20/02:30am 16.9 12.3 -3.8 24 8.6 ESE 11 15 6 8 1018.3 - 0.0
20/02:00am 17.0 11.8 -3.1 25 8.4 E 15 19 8 10 1018.6 - 0.0
20/01:30am 17.6 11.6 -3.2 24 8.8 E 19 22 10 12 1018.5 - 0.0
20/01:00am 17.7 12.5 -3.1 24 8.8 E 15 20 8 11 1018.6 - 0.0
20/12:30am 17.6 12.7 -3.2 24 8.8 E 13 15 7 8 1018.6 - 0.0
20/12:00am 19.1 13.9 -2.5 23 9.3 E 15 17 8 9 1018.5 1015.9 0.0
 
Date/Time
CST
Temp
°C
App
Temp
°C
Dew
Point
Rel
Hum
%
Delta-T
°C
Wind Press
QNH
hPa
Press
MSL
hPa
Rain
since 9 am
mm
Dir
 
Spd
km/h
Gust
km/h
Spd
kts
Gust
kts
19/11:30pm 18.2 13.4 -2.7 24 8.9 NE 13 15 7 8 1018.9 - 0.0
19/11:00pm 20.3 15.8 -3.4 20 10.2 E 11 17 6 9 1019.1 - 0.0
19/10:30pm 21.9 17.1 -2.7 19 10.9 E 13 20 7 11 1019.0 - 0.0
19/10:00pm 22.9 17.3 -2.6 18 11.4 E 17 22 9 12 1019.1 - 0.0
19/09:30pm 24.2 19.3 -3.2 16 12.2 ESE 13 19 7 10 1019.2 - 0.0
19/09:00pm 24.7 18.2 -2.8 16 12.4 ESE 22 35 12 19 1018.8 1016.2 0.0
19/08:30pm 25.3 18.4 -2.3 16 12.6 ESE 24 33 13 18 1018.7 - 0.0
19/08:00pm 25.6 17.1 -2.9 15 12.9 SE 32 46 17 25 1017.9 - 0.0
19/07:48pm 25.5 15.9 -1.3 17 12.5 SSE 39 57 21 31 1017.4 - 0.0
19/07:41pm 26.1 15.7 -1.7 16 12.9 SSE 43 57 23 31 1017.3 - 0.0
19/07:38pm 26.6 17.9 -3.1 14 13.6 S 33 54 18 29 1017.4 - 0.0
19/07:35pm 26.7 18.7 -2.1 15 13.4 S 30 46 16 25 1017.3 - 0.0
19/07:30pm 24.7 21.4 -1.2 18 12.1 WNW 6 17 3 9 1017.1 - 0.0
19/07:00pm 25.3 23.1 -1.5 17 12.5 CALM 0 0 0 0 1016.5 - 0.0
19/06:30pm 27.1 23.4 -2.7 14 13.7 N 7 9 4 5 1016.1 - 0.0
19/06:00pm 29.2 25.2 -2.0 13 14.8 N 9 11 5 6 1016.0 1013.4 0.0
19/05:30pm 29.2 26.9 -2.0 13 14.8 CALM 0 9 0 5 1015.9 - 0.0
19/05:00pm 30.2 25.1 -2.3 12 15.5 N 15 22 8 12 1015.8 - 0.0
19/04:30pm 30.0 26.3 -2.5 12 15.4 WNW 7 11 4 6 1015.7 - 0.0
19/04:00pm 30.0 26.0 -2.5 12 15.4 W 9 17 5 9 1015.8 - 0.0
19/03:30pm 29.8 24.6 -2.6 12 15.3 N 15 26 8 14 1016.0 - 0.0
19/03:00pm 30.2 24.7 -2.3 12 15.4 N 17 24 9 13 1016.4 1013.8 0.0
19/02:30pm 30.0 24.8 -2.5 12 15.4 N 15 26 8 14 1016.8 - 0.0
19/02:00pm 28.7 23.5 -2.4 13 14.6 N 15 24 8 13 1017.4 - 0.0
19/01:30pm 29.2 23.7 -2.0 13 14.8 NE 17 24 9 13 1017.8 - 0.0
19/01:00pm 28.0 22.8 -3.0 13 14.3 NNE 15 22 8 12 1018.5 - 0.0
19/12:30pm 27.5 22.4 -2.3 14 13.9 N 15 24 8 13 1019.0 - 0.0
19/12:00pm 26.1 20.0 -2.5 15 13.1 N 20 30 11 16 1019.6 1017.1 0.0
19/11:30am 24.8 18.7 -2.7 16 12.5 N 20 30 11 16 1020.3 - 0.0
19/11:00am 22.2 15.7 -2.5 19 11.0 NNE 22 32 12 17 1020.9 - 0.0
19/10:30am 21.0 13.8 -2.1 21 10.3 NNE 26 35 14 19 1021.1 - 0.0
19/10:00am 19.6 13.6 -1.5 24 9.4 NNE 20 28 11 15 1021.3 - 0.0
19/09:30am 19.5 13.6 -1.0 25 9.2 NNE 20 28 11 15 1021.7 - 0.0
19/09:00am 19.7 14.4 -0.3 26 9.1 NNE 17 28 9 15 1021.7 1019.2 0.0
19/08:30am 18.5 14.4 -0.3 28 8.5 NNE 11 15 6 8 1021.8 - 0.0
19/08:00am 18.3 13.1 0.4 30 8.2 NNE 17 22 9 12 1021.2 - 0.0
19/07:30am 14.6 10.8 1.8 42 5.8 ENE 11 13 6 7 1021.1 - 0.0
19/07:00am 13.0 10.0 2.0 47 5.0 E 7 9 4 5 1020.9 - 0.0
19/06:30am 12.7 9.7 2.0 48 4.8 NE 7 9 4 5 1021.0 - 0.0
19/06:00am 13.3 9.1 1.6 45 5.2 ESE 13 17 7 9 1020.5 1018.0 0.0
19/05:30am 12.8 9.9 1.5 46 5.0 N 6 7 3 4 1020.6 - 0.0
19/05:00am 13.5 9.3 1.8 45 5.3 ESE 13 17 7 9 1019.7 - 0.0
19/04:30am 13.3 11.2 1.6 45 5.2 E 2 7 1 4 1019.8 - 0.0
19/04:00am 13.9 10.8 1.2 42 5.7 E 7 9 4 5 1019.7 - 0.0
19/03:30am 15.2 11.4 1.7 40 6.2 ESE 11 13 6 7 1019.5 - 0.0
19/03:00am 14.2 11.2 1.8 43 5.6 E 7 11 4 6 1019.8 1017.3 0.0
19/02:30am 14.1 11.4 2.4 45 5.4 E 6 7 3 4 1020.4 - 0.0
19/02:00am 13.9 10.9 2.2 45 5.3 ENE 7 9 4 5 1020.4 - 0.0
19/01:30am 14.2 11.4 2.1 44 5.5 E 6 9 3 5 1020.6 - 0.0
19/01:00am 14.7 10.7 2.6 44 5.6 ENE 13 17 7 9 1020.4 - 0.0
19/12:30am 15.3 11.6 2.5 42 6.0 ENE 11 15 6 8 1021.3 - 0.0
19/12:00am 15.8 12.1 2.6 41 6.2 E 11 20 6 11 1021.8 1019.3 0.0
 
Date/Time
CST
Temp
°C
App
Temp
°C
Dew
Point
Rel
Hum
%
Delta-T
°C
Wind Press
QNH
hPa
Press
MSL
hPa
Rain
since 9 am
mm
Dir
 
Spd
km/h
Gust
km/h
Spd
kts
Gust
kts
18/11:30pm 16.4 13.2 3.1 41 6.3 ENE 9 15 5 8 1021.7 - 0.0
18/11:00pm 17.0 12.3 3.0 39 6.7 ENE 17 22 9 12 1021.6 - 0.0
18/10:30pm 17.1 13.6 3.4 40 6.6 E 11 15 6 8 1021.9 - 0.0
18/10:00pm 17.4 14.7 3.7 40 6.6 NE 7 13 4 7 1022.5 - 0.0
18/09:30pm 17.2 12.1 4.2 42 6.4 ENE 20 26 11 14 1022.3 - 0.0
18/09:00pm 16.9 12.0 4.3 43 6.1 E 19 22 10 12 1022.1 1019.6 0.0
18/08:30pm 17.1 11.3 4.4 43 6.2 ESE 24 37 13 20 1022.4 - 0.0
18/08:00pm 17.7 10.1 3.9 40 6.7 SSE 33 44 18 24 1022.1 - 0.0
18/07:30pm 18.1 10.4 3.6 38 7.0 SE 33 44 18 24 1021.7 - 0.0
18/07:00pm 18.6 10.1 3.3 36 7.4 SSE 37 48 20 26 1021.2 - 0.0
18/06:30pm 19.3 11.5 3.1 34 7.9 SSE 33 48 18 26 1021.3 - 0.0
18/06:00pm 20.4 11.6 3.6 33 8.3 SSE 39 54 21 29 1021.1 1018.6 0.0
18/05:54pm 20.7 11.6 3.9 33 8.4 SSE 41 54 22 29 1021.0 - 0.0
18/05:30pm 22.2 14.7 4.7 32 8.9 S 33 44 18 24 1020.6 - 0.0
18/05:10pm 22.9 15.7 4.9 31 9.3 SSW 32 57 17 31 1020.5 - 0.0
18/05:00pm 22.3 11.1 5.7 34 8.6 SW 54 80 29 43 1019.8 - 0.0
18/04:54pm 24.7 12.7 3.9 26 10.6 SW 56 76 30 41 1019.2 - 0.0
18/04:52pm 26.4 19.4 1.7 20 12.3 WSW 28 46 15 25 1019.2 - 0.0
18/04:30pm 27.1 23.4 0.0 17 13.1 SW 9 20 5 11 1018.6 - 0.0
18/04:00pm 27.4 23.0 0.2 17 13.2 SW 13 19 7 10 1018.6 - 0.0
18/03:30pm 27.0 23.3 -0.1 17 13.1 E 9 15 5 8 1018.3 - 0.0
18/03:00pm 27.4 23.7 0.2 17 13.2 E 9 15 5 8 1018.2 1015.7 0.0
18/02:30pm 27.6 23.2 0.4 17 13.3 N 13 20 7 11 1018.3 - 0.0
18/02:00pm 27.5 22.0 0.3 17 13.3 N 19 33 10 18 1018.5 - 0.0
18/01:30pm 28.3 22.2 0.1 16 13.8 NNE 22 32 12 17 1019.0 - 0.0
18/01:00pm 26.9 21.4 0.6 18 12.9 N 19 33 10 18 1019.8 - 0.0
18/12:30pm 26.3 20.3 0.9 19 12.4 NNE 22 37 12 20 1020.2 - 0.0
18/12:00pm 24.7 19.6 0.9 21 11.5 NNE 17 24 9 13 1021.3 1018.8 0.0
18/11:30am 23.7 18.7 1.4 23 10.8 N 17 30 9 16 1022.0 - 0.0
18/11:00am 22.0 16.7 1.6 26 9.8 N 19 28 10 15 1022.7 - 0.0
18/10:30am 21.5 15.2 1.7 27 9.5 NNE 24 33 13 18 1022.6 - 0.0
18/10:00am 20.5 13.9 1.9 29 8.9 N 26 35 14 19 1022.9 - 0.0
18/09:30am 20.1 14.2 2.0 30 8.6 NNE 22 33 12 18 1023.2 - 0.0
18/09:00am 18.6 11.9 1.6 32 7.9 NNE 26 35 14 19 1023.2 1020.7 0.0
18/08:30am 18.4 13.9 1.9 33 7.8 NNE 15 30 8 16 1022.9 - 0.0
18/08:00am 17.2 13.5 2.4 37 7.0 NNE 11 15 6 8 1022.8 - 0.0
18/07:30am 15.1 12.2 2.6 43 5.8 E 7 9 4 5 1022.4 - 0.0
18/07:00am 13.9 11.0 2.5 46 5.2 E 7 11 4 6 1022.1 - 0.0
18/06:30am 14.0 10.0 2.9 47 5.2 E 13 17 7 9 1022.1 - 0.0
18/06:00am 14.2 9.9 3.1 47 5.2 E 15 20 8 11 1021.9 1019.4 0.0
18/05:30am 14.4 10.4 2.9 46 5.4 E 13 19 7 10 1021.7 - 0.0
18/05:00am 13.6 10.4 3.1 49 4.9 E 9 13 5 7 1021.8 - 0.0
18/04:30am 12.9 8.9 3.0 51 4.6 E 13 15 7 8 1021.6 - 0.0
18/04:00am 13.2 9.2 3.0 50 4.7 E 13 15 7 8 1021.7 - 0.0
18/03:30am 13.4 9.4 2.9 49 4.8 E 13 17 7 9 1021.7 - 0.0
18/03:00am 12.9 9.3 3.0 51 4.5 ENE 11 13 6 7 1021.7 1019.2 0.0
18/02:30am 14.2 10.7 3.4 48 5.1 E 11 13 6 7 1022.1 - 0.0
18/02:00am 13.9 10.4 3.7 50 4.8 E 11 13 6 7 1022.3 - 0.0
18/01:30am 13.9 10.0 3.4 49 4.9 E 13 15 7 8 1022.6 - 0.0
18/01:00am 14.3 10.8 3.7 49 5.0 E 11 13 6 7 1022.8 - 0.0
18/12:30am 14.6 11.1 3.4 47 5.3 ENE 11 13 6 7 1022.9 - 0.0
18/12:00am 15.9 12.4 3.7 44 5.8 E 11 13 6 7 1022.9 1020.5 0.0
 
Date/Time
CST
Temp
°C
App
Temp
°C
Dew
Point
Rel
Hum
%
Delta-T
°C
Wind Press
QNH
hPa
Press
MSL
hPa
Rain
since 9 am
mm
Dir
 
Spd
km/h
Gust
km/h
Spd
kts
Gust
kts
17/11:30pm 17.8 13.3 4.0 40 6.7 E 17 22 9 12 1022.7 - 0.0
17/11:00pm 18.3 13.4 4.1 39 7.0 E 19 28 10 15 1022.9 - 0.0
17/10:30pm 19.0 14.2 4.4 38 7.3 E 19 30 10 16 1023.1 - 0.0
17/10:00pm 19.3 14.9 4.6 38 7.3 E 17 28 9 15 1022.9 - 0.0
17/09:30pm 19.5 15.1 4.8 38 7.4 E 17 24 9 13 1022.6 - 0.0
17/09:00pm 20.3 15.3 4.4 35 7.9 E 20 26 11 14 1022.3 1019.8 0.0
17/08:30pm 20.7 16.1 3.9 33 8.4 E 17 22 9 12 1022.1 - 0.0
17/08:00pm 21.8 16.8 3.5 30 9.1 E 19 28 10 15 1021.4 - 0.0
17/07:30pm 22.0 16.9 3.2 29 9.3 ESE 19 24 10 13 1020.9 - 0.0
17/07:00pm 22.5 18.1 2.6 27 9.8 E 15 22 8 12 1020.4 - 0.0
17/06:30pm 23.4 18.6 2.8 26 10.2 E 17 22 9 12 1020.1 - 0.0
17/06:00pm 24.5 19.2 3.2 25 10.7 E 20 24 11 13 1019.8 1017.3 0.0
17/05:30pm 25.1 19.7 2.5 23 11.3 E 20 30 11 16 1019.5 - 0.0
17/05:00pm 25.5 20.2 2.9 23 11.4 ENE 20 28 11 15 1019.3 - 0.0
17/04:30pm 26.3 21.2 2.9 22 11.9 E 19 35 10 19 1019.2 - 0.0
17/04:00pm 26.6 21.3 3.2 22 12.0 E 20 32 11 17 1019.1 - 0.0
17/03:30pm 26.2 21.8 2.8 22 11.8 ENE 15 28 8 15 1019.3 - 0.0
17/03:00pm 26.0 22.1 3.3 23 11.5 ESE 13 26 7 14 1019.4 1016.9 0.0
17/02:30pm 25.1 20.8 3.1 24 11.1 NNE 15 30 8 16 1019.7 - 0.0
17/02:00pm 24.7 19.7 3.4 25 10.8 ESE 19 32 10 17 1020.3 - 0.0
17/01:30pm 25.0 21.5 3.6 25 10.9 ENE 11 24 6 13 1020.7 - 0.0
17/01:00pm 24.6 20.0 3.8 26 10.6 ENE 17 33 9 18 1020.9 - 0.0
17/12:30pm 23.9 18.9 3.8 27 10.2 NE 19 32 10 17 1021.3 - 0.0
17/12:00pm 22.8 18.6 3.9 29 9.5 ENE 15 26 8 14 1021.9 1019.4 0.0
17/11:30am 22.0 16.8 3.6 30 9.2 ENE 20 28 11 15 1022.4 - 0.0
17/11:00am 21.2 16.2 3.4 31 8.8 NE 19 30 10 16 1022.7 - 0.0
17/10:30am 21.4 16.3 4.0 32 8.7 ENE 20 26 11 14 1023.3 - 0.0
17/10:00am 20.1 13.8 3.8 34 8.1 ENE 26 33 14 18 1023.1 - 0.0
17/09:30am 19.6 14.1 4.1 36 7.7 ENE 22 30 12 16 1023.2 - 0.0

Other Formats:

Comma delimited format used in spreadsheet applications
http://www.bom.gov.au/fwo/IDD60801/IDD60801.94474.axf

JavaScript Object Notation format (JSON) in row-major order
http://www.bom.gov.au/fwo/IDD60801/IDD60801.94474.json